Time;durP1;ratioP1;P1;durP2;ratioP2;P2;SDS_P1;SDS_P2;PMS_P1;PMS_P2;Temp;Humidity;BMP_temperature;BMP_pressure;BME280_temperature;BME280_humidity;BME280_pressure;Samples;Min_cycle;Max_cycle;Signal;HPM_P1;HPM_P2
2022/06/27 05:00:28;;;;;;;2.50;1.60;;;20.60;97.20;;;;;;1720240;28;20715;-72
2022/06/27 05:01:19;;;;;;;4.85;1.60;;;20.60;97.20;;;;;;1720484;28;20312;-72
2022/06/27 05:02:11;;;;;;;3.73;2.00;;;20.60;97.20;;;;;;1720459;28;20205;-72
2022/06/27 05:03:02;;;;;;;4.07;1.75;;;20.60;97.20;;;;;;1719908;28;20201;-72
2022/06/27 05:03:54;;;;;;;3.83;1.80;;;20.50;97.20;;;;;;1720648;28;20197;-72
2022/06/27 05:04:45;;;;;;;1.60;1.50;;;20.50;97.20;;;;;;1720451;28;20703;-73
2022/06/27 05:05:36;;;;;;;2.80;2.20;;;20.50;97.20;;;;;;1719859;28;20730;-73
2022/06/27 05:06:27;;;;;;;2.15;1.63;;;20.50;97.20;;;;;;1720749;28;20205;-73
2022/06/27 05:07:18;;;;;;;1.77;1.67;;;20.40;97.20;;;;;;1720417;28;20228;-73
2022/06/27 05:08:10;;;;;;;2.23;1.70;;;20.30;97.20;;;;;;1720613;28;20471;-73
2022/06/27 05:09:01;;;;;;;2.60;1.75;;;20.40;97.20;;;;;;1720749;28;20614;-73
2022/06/27 05:09:53;;;;;;;1.92;1.73;;;20.40;97.20;;;;;;1720583;28;20256;-73
2022/06/27 05:10:44;;;;;;;1.50;1.40;;;20.30;97.20;;;;;;1720722;28;20234;-73
2022/06/27 05:11:36;;;;;;;2.17;1.80;;;20.40;97.20;;;;;;1720581;28;20201;-72
2022/06/27 05:12:27;;;;;;;2.63;1.60;;;20.40;97.20;;;;;;1720756;28;20587;-72
2022/06/27 05:13:19;;;;;;;1.70;1.52;;;20.40;97.20;;;;;;1720479;28;20217;-72
2022/06/27 05:14:10;;;;;;;1.95;1.42;;;20.40;97.20;;;;;;1720610;28;20205;-71
2022/06/27 05:15:01;;;;;;;3.00;1.47;;;20.40;97.20;;;;;;1720725;28;20280;-72
2022/06/27 05:15:54;;;;;;;2.33;1.70;;;20.40;97.20;;;;;;1717240;28;20205;-71
2022/06/27 05:16:51;;;;;;;3.20;1.50;;;20.40;97.20;;;;;;1719396;28;20217;-72
2022/06/27 05:17:43;;;;;;;1.50;1.40;;;20.30;97.20;;;;;;1720376;28;20209;-71
2022/06/27 05:18:35;;;;;;;2.03;1.38;;;20.30;97.20;;;;;;1726451;28;20196;-72
2022/06/27 05:19:25;;;;;;;2.05;1.60;;;20.40;97.20;;;;;;1720450;28;20212;-71
2022/06/27 05:20:18;;;;;;;1.97;1.27;;;20.40;97.20;;;;;;1719829;28;20195;-71
2022/06/27 05:21:10;;;;;;;2.42;1.38;;;20.40;97.20;;;;;;1720196;28;20197;-71
2022/06/27 05:22:02;;;;;;;2.60;1.67;;;20.40;97.20;;;;;;1722150;28;20197;-71
2022/06/27 05:22:52;;;;;;;2.30;1.50;;;20.40;97.20;;;;;;1727199;28;20197;-71
2022/06/27 05:23:44;;;;;;;2.23;1.30;;;20.40;97.20;;;;;;1727036;28;20727;-71
2022/06/27 05:24:35;;;;;;;2.10;1.30;;;20.50;97.20;;;;;;1727087;28;20598;-71
2022/06/27 05:25:27;;;;;;;1.97;1.20;;;20.50;97.20;;;;;;1727249;28;20196;-71
2022/06/27 05:26:18;;;;;;;2.45;1.80;;;20.50;97.20;;;;;;1727038;28;20568;-72
2022/06/27 05:27:10;;;;;;;2.13;1.67;;;20.50;97.20;;;;;;1726927;28;20629;-72
2022/06/27 05:28:02;;;;;;;2.25;1.40;;;20.50;97.20;;;;;;1727154;28;20505;-72
2022/06/27 05:28:55;;;;;;;2.60;1.40;;;20.50;97.20;;;;;;1727161;28;20271;-72
2022/06/27 05:29:46;;;;;;;1.88;1.35;;;20.50;97.20;;;;;;1727191;28;20204;-72
2022/06/27 05:30:38;;;;;;;1.83;1.40;;;20.40;97.20;;;;;;1727116;28;20204;-72
2022/06/27 05:31:30;;;;;;;2.22;1.60;;;20.50;97.20;;;;;;1727176;28;20459;-72
2022/06/27 05:32:22;;;;;;;2.00;1.10;;;20.50;97.20;;;;;;1727058;28;20216;-72
2022/06/27 05:33:13;;;;;;;2.28;1.52;;;20.50;97.20;;;;;;1726927;28;20588;-72
2022/06/27 05:34:04;;;;;;;5.43;1.40;;;20.50;97.20;;;;;;1725938;28;20283;-72
2022/06/27 05:34:55;;;;;;;4.32;1.55;;;20.50;97.20;;;;;;1720316;28;20449;-72
2022/06/27 05:35:47;;;;;;;1.20;1.10;;;20.50;97.20;;;;;;1720205;28;20243;-72
2022/06/27 05:36:38;;;;;;;2.40;1.45;;;20.50;97.20;;;;;;1719610;28;20208;-71
2022/06/27 05:37:29;;;;;;;2.30;1.50;;;20.60;97.20;;;;;;1720015;28;20688;-72
2022/06/27 05:38:21;;;;;;;2.10;1.50;;;20.60;97.20;;;;;;1720351;28;20459;-72
2022/06/27 05:39:13;;;;;;;3.40;1.33;;;20.60;97.20;;;;;;1720004;28;20288;-72
2022/06/27 05:40:05;;;;;;;4.63;1.27;;;20.60;97.20;;;;;;1719698;28;20300;-72
2022/06/27 05:40:57;;;;;;;2.92;1.40;;;20.70;97.20;;;;;;1720310;28;20197;-72
2022/06/27 05:41:48;;;;;;;1.85;1.17;;;20.70;97.20;;;;;;1720506;28;20287;-72
2022/06/27 05:42:40;;;;;;;1.93;1.10;;;20.80;97.20;;;;;;1720599;28;20209;-72
2022/06/27 05:43:31;;;;;;;1.58;1.48;;;20.80;97.20;;;;;;1720441;28;20315;-72
2022/06/27 05:44:24;;;;;;;2.13;1.50;;;20.90;97.20;;;;;;1720249;28;20254;-72
2022/06/27 05:45:16;;;;;;;3.83;1.60;;;20.90;97.20;;;;;;1720463;28;20584;-72
2022/06/27 05:46:08;;;;;;;4.32;1.63;;;20.90;97.20;;;;;;1720460;28;20748;-72
2022/06/27 05:47:02;;;;;;;1.77;1.67;;;21.00;97.20;;;;;;1720143;28;20571;-72
2022/06/27 05:47:59;;;;;;;2.00;1.70;;;21.00;97.20;;;;;;1720358;28;20201;-72
2022/06/27 05:48:51;;;;;;;4.10;2.45;;;21.10;97.20;;;;;;1720219;28;20209;-72
2022/06/27 05:49:43;;;;;;;3.13;1.65;;;21.10;97.20;;;;;;1720430;28;20205;-72
2022/06/27 05:50:35;;;;;;;1.95;1.63;;;21.10;97.20;;;;;;1720364;28;20236;-72
2022/06/27 05:51:27;;;;;;;1.70;1.60;;;21.10;97.20;;;;;;1720483;28;20205;-74
2022/06/27 05:52:18;;;;;;;2.05;1.85;;;21.10;97.20;;;;;;1720494;28;20193;-72
2022/06/27 05:53:09;;;;;;;2.95;1.60;;;21.20;97.20;;;;;;1720487;28;20289;-72
2022/06/27 05:54:01;;;;;;;2.03;1.70;;;21.20;97.20;;;;;;1720544;28;20305;-73
2022/06/27 05:54:52;;;;;;;2.28;1.40;;;21.20;97.20;;;;;;1720271;28;20728;-71
2022/06/27 05:55:46;;;;;;;2.67;1.70;;;21.20;97.20;;;;;;1720527;28;20259;-71
2022/06/27 05:56:38;;;;;;;3.40;1.55;;;21.20;97.20;;;;;;1720256;28;20292;-72
2022/06/27 05:57:31;;;;;;;3.25;2.03;;;21.30;97.20;;;;;;1720517;28;20237;-72
2022/06/27 05:58:22;;;;;;;1.92;1.50;;;21.30;97.20;;;;;;1718568;28;20598;-73
2022/06/27 05:59:14;;;;;;;2.15;1.60;;;21.30;97.20;;;;;;1713851;28;20200;-72
2022/06/27 06:00:08;;;;;;;2.45;1.52;;;21.30;97.20;;;;;;1717986;28;20723;-72
2022/06/27 06:01:01;;;;;;;3.50;1.58;;;21.40;97.20;;;;;;1720542;28;20197;-72
2022/06/27 06:01:52;;;;;;;3.40;1.55;;;21.40;97.20;;;;;;1720463;28;20254;-72
2022/06/27 06:02:46;;;;;;;1.58;1.48;;;21.40;97.20;;;;;;1720516;28;20197;-72
2022/06/27 06:03:37;;;;;;;2.05;1.65;;;21.40;97.20;;;;;;1720310;28;20248;-72
2022/06/27 06:04:29;;;;;;;1.70;1.60;;;21.40;97.20;;;;;;1720523;28;20239;-72
2022/06/27 06:05:21;;;;;;;2.03;1.83;;;21.40;97.20;;;;;;1720513;28;20200;-72
2022/06/27 06:06:13;;;;;;;3.35;2.00;;;21.50;97.20;;;;;;1720447;28;20244;-72
2022/06/27 06:07:05;;;;;;;2.28;1.90;;;21.50;97.20;;;;;;1720139;28;20231;-72
2022/06/27 06:07:59;;;;;;;2.97;2.33;;;21.50;97.20;;;;;;1720372;28;20683;-72
2022/06/27 06:08:54;;;;;;;3.33;1.77;;;21.50;97.20;;;;;;1720467;28;20202;-73
2022/06/27 06:09:45;;;;;;;4.25;2.30;;;21.50;97.20;;;;;;1720442;28;20216;-72
2022/06/27 06:10:36;;;;;;;2.83;2.40;;;21.50;97.20;;;;;;1720401;28;20201;-72
2022/06/27 06:11:28;;;;;;;2.20;2.00;;;21.50;97.20;;;;;;1719201;28;20206;-73
2022/06/27 06:12:20;;;;;;;4.10;2.25;;;21.50;97.20;;;;;;1713772;28;20222;-72
2022/06/27 06:13:11;;;;;;;3.65;2.10;;;21.50;97.20;;;;;;1716777;28;20656;-73
2022/06/27 06:14:04;;;;;;;2.37;1.77;;;21.50;97.20;;;;;;1720334;28;20707;-73
2022/06/27 06:14:55;;;;;;;2.67;1.90;;;21.60;97.20;;;;;;1721741;28;20208;-73
2022/06/27 06:15:47;;;;;;;2.00;1.80;;;21.60;97.20;;;;;;1721693;28;20570;-73
2022/06/27 06:16:38;;;;;;;2.50;1.90;;;21.60;97.20;;;;;;1721581;28;20241;-72
2022/06/27 06:17:44;;;;;;;6.75;2.10;;;21.60;97.20;;;;;;1721762;28;20193;-73
2022/06/27 06:18:37;;;;;;;2.10;1.77;;;21.60;97.20;;;;;;1721628;28;20209;-73
2022/06/27 06:19:29;;;;;;;3.88;1.70;;;21.60;97.20;;;;;;1721813;28;20224;-73
2022/06/27 06:20:20;;;;;;;3.58;2.10;;;21.70;97.20;;;;;;1721657;28;20205;-72
2022/06/27 06:21:12;;;;;;;2.08;1.70;;;21.60;97.20;;;;;;1721688;28;20564;-72
2022/06/27 06:22:03;;;;;;;3.22;1.92;;;21.70;97.20;;;;;;1721745;28;20603;-73
2022/06/27 06:22:55;;;;;;;1.70;1.60;;;21.70;97.20;;;;;;1721531;28;20240;-72
2022/06/27 06:23:46;;;;;;;2.10;1.52;;;21.70;97.20;;;;;;1721603;28;20232;-73
2022/06/27 06:24:38;;;;;;;3.53;1.80;;;21.70;97.20;;;;;;1721651;28;20607;-73
2022/06/27 06:25:30;;;;;;;1.65;1.38;;;21.70;97.20;;;;;;1721720;28;20656;-73
2022/06/27 06:26:22;;;;;;;2.00;1.50;;;21.80;97.20;;;;;;1721541;28;20201;-72
2022/06/27 06:27:13;;;;;;;2.35;1.70;;;21.80;97.20;;;;;;1721348;28;20201;-73
2022/06/27 06:28:05;;;;;;;2.63;1.50;;;21.80;97.20;;;;;;1721676;28;20296;-73
2022/06/27 06:28:58;;;;;;;4.43;1.55;;;21.80;97.20;;;;;;1721607;28;20448;-73
2022/06/27 06:29:51;;;;;;;1.73;1.30;;;21.80;97.20;;;;;;1721464;28;20201;-73
2022/06/27 06:30:42;;;;;;;2.25;1.55;;;21.90;97.20;;;;;;1721643;28;20208;-73
2022/06/27 06:31:33;;;;;;;2.17;1.40;;;21.90;97.20;;;;;;1721450;28;20292;-73
2022/06/27 06:32:25;;;;;;;3.33;1.50;;;21.90;97.20;;;;;;1721645;28;20676;-73
2022/06/27 06:33:17;;;;;;;2.50;1.70;;;21.90;97.20;;;;;;1721467;28;20193;-73
2022/06/27 06:34:09;;;;;;;3.30;1.55;;;21.90;97.20;;;;;;1721435;28;20216;-73
2022/06/27 06:35:02;;;;;;;3.60;1.40;;;21.90;97.20;;;;;;1721299;28;20254;-73
2022/06/27 06:35:53;;;;;;;2.35;1.50;;;22.00;97.20;;;;;;1720948;28;20548;-73
2022/06/27 06:36:45;;;;;;;2.07;1.30;;;22.00;97.20;;;;;;1720976;28;20614;-73
2022/06/27 06:37:39;;;;;;;2.25;1.88;;;22.00;97.20;;;;;;1721318;28;20576;-73
2022/06/27 06:38:31;;;;;;;2.63;1.70;;;22.00;97.20;;;;;;1721316;28;20224;-73
2022/06/27 06:39:22;;;;;;;1.88;1.15;;;22.00;97.20;;;;;;1721397;28;20263;-74
2022/06/27 06:40:16;;;;;;;1.57;1.10;;;22.00;97.20;;;;;;1721333;28;20224;-73
2022/06/27 06:41:06;;;;;;;2.03;1.30;;;22.10;97.20;;;;;;1721349;28;20197;-73
2022/06/27 06:41:59;;;;;;;2.77;1.40;;;22.10;97.20;;;;;;1721353;28;20251;-73
2022/06/27 06:42:50;;;;;;;3.72;1.00;;;22.10;97.20;;;;;;1721359;28;20266;-73
2022/06/27 06:43:42;;;;;;;1.75;0.95;;;22.10;97.20;;;;;;1721275;28;20307;-73
2022/06/27 06:44:33;;;;;;;1.33;1.05;;;22.10;97.20;;;;;;1721054;28;20598;-73
2022/06/27 06:45:25;;;;;;;1.57;1.20;;;22.10;97.20;;;;;;1721240;28;20316;-73
2022/06/27 06:46:15;;;;;;;1.77;1.13;;;22.10;97.20;;;;;;1721241;28;20444;-73
2022/06/27 06:47:08;;;;;;;2.00;1.30;;;22.20;97.20;;;;;;1721102;28;20284;-73
2022/06/27 06:47:59;;;;;;;2.97;1.85;;;22.10;97.20;;;;;;1721015;28;21140;-73
2022/06/27 06:48:54;;;;;;;2.00;1.88;;;22.20;97.20;;;;;;1721331;28;20612;-73
2022/06/27 06:49:47;;;;;;;3.47;3.17;;;22.10;97.20;;;;;;1721590;28;20209;-73
2022/06/27 06:50:38;;;;;;;4.65;3.20;;;22.10;97.20;;;;;;1721440;28;20209;-73
2022/06/27 06:51:31;;;;;;;5.97;5.25;;;22.10;97.20;;;;;;1721534;28;20213;-73
2022/06/27 06:52:22;;;;;;;4.00;3.30;;;22.20;97.20;;;;;;1721453;28;20229;-73
2022/06/27 06:53:13;;;;;;;3.20;2.90;;;22.20;97.20;;;;;;1721375;28;20232;-73
2022/06/27 06:54:06;;;;;;;7.70;6.40;;;22.20;97.20;;;;;;1721525;28;20205;-73
2022/06/27 06:54:57;;;;;;;8.00;7.13;;;22.20;97.20;;;;;;1721467;28;20550;-73
2022/06/27 06:55:49;;;;;;;7.30;6.60;;;22.20;97.20;;;;;;1721434;28;20651;-73
2022/06/27 06:56:41;;;;;;;14.65;12.50;;;22.30;97.20;;;;;;1721236;28;20218;-73
2022/06/27 06:57:32;;;;;;;10.27;8.85;;;22.30;97.20;;;;;;1721505;28;20213;-73
2022/06/27 06:58:25;;;;;;;5.90;3.53;;;22.30;97.20;;;;;;1721408;28;20280;-73
2022/06/27 06:59:17;;;;;;;4.70;4.00;;;22.30;97.20;;;;;;1721158;28;20200;-73
2022/06/27 07:00:11;;;;;;;5.72;3.67;;;22.40;97.20;;;;;;1721485;28;20197;-73
2022/06/27 07:01:02;;;;;;;6.10;4.00;;;22.40;97.20;;;;;;1721384;28;20580;-73
2022/06/27 07:01:54;;;;;;;5.68;4.40;;;22.40;97.20;;;;;;1721450;28;20190;-73
2022/06/27 07:02:46;;;;;;;8.15;7.32;;;22.40;97.20;;;;;;1721450;28;20217;-73
2022/06/27 07:03:38;;;;;;;9.60;7.15;;;22.50;97.20;;;;;;1721339;28;20689;-73
2022/06/27 07:04:29;;;;;;;9.00;8.15;;;22.50;97.20;;;;;;1721444;28;20264;-73
2022/06/27 07:05:22;;;;;;;8.10;6.80;;;22.50;97.20;;;;;;1721335;28;20251;-73
2022/06/27 07:06:13;;;;;;;4.55;4.00;;;22.60;97.20;;;;;;1721351;28;20205;-73
2022/06/27 07:07:05;;;;;;;4.47;3.40;;;22.60;97.20;;;;;;1721176;28;20552;-73
2022/06/27 07:07:56;;;;;;;3.25;2.95;;;22.60;97.20;;;;;;1721294;28;20228;-73
2022/06/27 07:08:48;;;;;;;4.88;4.38;;;22.70;97.20;;;;;;1721393;28;20197;-73
2022/06/27 07:09:39;;;;;;;8.10;7.30;;;22.70;97.20;;;;;;1721390;28;20212;-73
2022/06/27 07:10:31;;;;;;;6.63;5.27;;;22.70;97.20;;;;;;1721369;28;20205;-73
2022/06/27 07:11:23;;;;;;;4.63;2.97;;;22.80;97.20;;;;;;1721450;28;20209;-73
2022/06/27 07:12:14;;;;;;;5.22;4.15;;;22.80;97.20;;;;;;1721374;28;20263;-73
2022/06/27 07:13:05;;;;;;;2.45;2.00;;;22.80;97.20;;;;;;1721153;28;20212;-73
2022/06/27 07:13:57;;;;;;;2.65;2.13;;;22.90;97.20;;;;;;1721087;28;20204;-73
2022/06/27 07:14:49;;;;;;;2.70;2.30;;;22.90;97.20;;;;;;1721447;28;20216;-73
2022/06/27 07:15:45;;;;;;;3.45;2.58;;;23.00;97.20;;;;;;1721483;28;20205;-74
2022/06/27 07:16:37;;;;;;;2.10;1.90;;;23.00;97.20;;;;;;1721056;28;20259;-73
2022/06/27 07:17:29;;;;;;;1.63;1.50;;;23.00;97.20;;;;;;1721431;28;20208;-73
2022/06/27 07:18:20;;;;;;;2.00;1.60;;;23.00;97.20;;;;;;1721265;28;20270;-73
2022/06/27 07:19:13;;;;;;;2.20;1.87;;;23.00;97.20;;;;;;1721362;28;20919;-73
2022/06/27 07:20:05;;;;;;;2.15;1.40;;;23.00;97.20;;;;;;1721359;28;20201;-73
2022/06/27 07:21:00;;;;;;;1.55;1.40;;;23.00;97.20;;;;;;1721282;28;20205;-73
2022/06/27 07:21:51;;;;;;;1.95;1.33;;;23.00;97.20;;;;;;1721308;28;20197;-74
2022/06/27 07:22:43;;;;;;;2.50;1.40;;;23.00;97.20;;;;;;1721294;28;20201;-73
2022/06/27 07:23:35;;;;;;;2.75;1.30;;;23.10;97.20;;;;;;1721275;28;20241;-72
2022/06/27 07:24:26;;;;;;;2.03;1.13;;;23.10;97.20;;;;;;1721491;28;20848;-71
2022/06/27 07:25:18;;;;;;;1.92;1.05;;;23.10;97.20;;;;;;1721299;28;20205;-71
2022/06/27 07:26:09;;;;;;;1.63;1.30;;;23.10;97.20;;;;;;1720788;28;20305;-72
2022/06/27 07:27:01;;;;;;;3.22;1.45;;;23.10;97.20;;;;;;1721096;28;20208;-71
2022/06/27 07:27:53;;;;;;;2.00;1.33;;;23.10;97.20;;;;;;1720932;28;20251;-72
2022/06/27 07:28:45;;;;;;;1.50;1.05;;;23.10;97.20;;;;;;1721323;28;20677;-72
2022/06/27 07:29:36;;;;;;;1.10;0.90;;;23.10;97.20;;;;;;1721243;28;20209;-72
2022/06/27 07:30:28;;;;;;;3.87;1.30;;;23.20;97.20;;;;;;1721251;28;20296;-72
2022/06/27 07:31:21;;;;;;;3.88;1.58;;;23.20;97.20;;;;;;1721252;28;20460;-72
2022/06/27 07:32:13;;;;;;;1.60;1.13;;;23.20;97.20;;;;;;1721253;28;20683;-72
2022/06/27 07:33:04;;;;;;;2.13;1.15;;;23.20;97.20;;;;;;1721234;28;20588;-72
2022/06/27 07:33:56;;;;;;;2.90;1.15;;;23.30;97.20;;;;;;1721289;28;20237;-72
2022/06/27 07:34:48;;;;;;;1.58;1.20;;;23.30;97.20;;;;;;1721363;28;20728;-72
2022/06/27 07:35:40;;;;;;;1.83;1.08;;;23.30;97.20;;;;;;1721259;28;20200;-72
2022/06/27 07:36:32;;;;;;;1.80;1.23;;;23.30;97.20;;;;;;1721232;28;20205;-71
2022/06/27 07:37:25;;;;;;;2.13;1.10;;;23.30;97.20;;;;;;1721206;28;20201;-71
2022/06/27 07:38:15;;;;;;;1.23;1.00;;;23.40;97.20;;;;;;1721077;28;20243;-72
2022/06/27 07:39:07;;;;;;;2.00;1.33;;;23.40;97.20;;;;;;1721311;28;20260;-72
2022/06/27 07:39:58;;;;;;;4.05;1.20;;;23.40;97.20;;;;;;1721200;28;20843;-72
2022/06/27 07:40:50;;;;;;;1.57;1.00;;;23.40;97.20;;;;;;1721245;28;20221;-72
2022/06/27 07:41:44;;;;;;;1.60;1.17;;;23.50;97.20;;;;;;1721247;28;20213;-72
2022/06/27 07:42:37;;;;;;;2.15;1.20;;;23.50;97.20;;;;;;1720831;28;20240;-72
2022/06/27 07:43:28;;;;;;;2.30;1.20;;;23.50;97.20;;;;;;1721151;28;20738;-72
2022/06/27 07:44:20;;;;;;;2.70;1.00;;;23.50;97.20;;;;;;1721205;28;20686;-72
2022/06/27 07:45:12;;;;;;;2.00;1.42;;;23.50;97.20;;;;;;1721181;28;20440;-75
2022/06/27 07:46:04;;;;;;;1.90;1.30;;;23.50;97.20;;;;;;1721074;28;20804;-72
2022/06/27 07:46:56;;;;;;;2.88;1.10;;;23.60;97.20;;;;;;1720892;28;20583;-73
2022/06/27 07:47:47;;;;;;;2.88;1.65;;;23.60;97.20;;;;;;1721163;28;20284;-73
2022/06/27 07:48:38;;;;;;;1.70;1.02;;;23.60;97.20;;;;;;1721112;28;20205;-73
2022/06/27 07:49:30;;;;;;;2.97;1.38;;;23.60;97.20;;;;;;1721067;28;20209;-72
2022/06/27 07:50:40;;;;;;;2.10;1.08;;;23.50;97.20;;;;;;1721214;28;20212;-72
2022/06/27 07:51:35;;;;;;;2.20;1.10;;;23.50;97.20;;;;;;1721200;28;20205;-73
2022/06/27 07:52:27;;;;;;;1.65;1.15;;;23.50;97.20;;;;;;1721086;28;20210;-72
2022/06/27 07:53:19;;;;;;;1.90;1.00;;;23.50;97.20;;;;;;1721054;28;20236;-72
2022/06/27 07:54:11;;;;;;;2.08;1.10;;;23.50;97.20;;;;;;1721115;28;20824;-73
2022/06/27 07:55:04;;;;;;;2.30;1.00;;;23.50;97.20;;;;;;1721126;28;20209;-73
2022/06/27 07:55:58;;;;;;;1.73;1.08;;;23.50;97.20;;;;;;1721075;28;20224;-72
2022/06/27 07:56:50;;;;;;;2.10;1.30;;;23.50;97.20;;;;;;1720577;28;20201;-72
2022/06/27 07:57:43;;;;;;;1.77;1.15;;;23.50;97.20;;;;;;1720985;28;20197;-72
2022/06/27 07:58:35;;;;;;;1.50;0.90;;;23.50;97.20;;;;;;1720766;28;20668;-72
2022/06/27 07:59:28;;;;;;;1.55;1.00;;;23.60;97.20;;;;;;1720357;28;20201;-72
2022/06/27 08:00:19;;;;;;;1.10;1.00;;;23.60;97.20;;;;;;1720442;28;20577;-73
2022/06/27 08:01:14;;;;;;;2.70;1.55;;;23.60;97.20;;;;;;1720645;28;20197;-72
2022/06/27 08:02:05;;;;;;;1.33;1.05;;;23.60;97.20;;;;;;1720394;28;20201;-72
2022/06/27 08:02:56;;;;;;;2.40;1.10;;;23.70;97.20;;;;;;1721034;28;20202;-72
2022/06/27 08:03:48;;;;;;;2.08;1.08;;;23.70;97.20;;;;;;1720839;28;20205;-72
2022/06/27 08:04:41;;;;;;;2.20;1.33;;;23.80;97.20;;;;;;1720883;28;20656;-72
2022/06/27 08:05:32;;;;;;;2.30;1.27;;;23.80;97.20;;;;;;1720861;28;20263;-72
2022/06/27 08:06:26;;;;;;;1.83;1.40;;;23.80;97.20;;;;;;1720848;28;20209;-72
2022/06/27 08:07:18;;;;;;;2.17;1.10;;;23.80;97.20;;;;;;1720688;28;20205;-72
2022/06/27 08:08:10;;;;;;;3.10;1.25;;;23.80;97.20;;;;;;1721018;28;20224;-73
2022/06/27 08:09:05;;;;;;;2.33;1.30;;;23.80;97.20;;;;;;1720991;28;20208;-72
2022/06/27 08:09:56;;;;;;;1.30;1.20;;;23.80;97.20;;;;;;1720988;28;20661;-72
2022/06/27 08:10:48;;;;;;;1.60;1.00;;;23.90;97.20;;;;;;1721062;28;20572;-72
2022/06/27 08:11:42;;;;;;;1.63;1.10;;;23.90;97.20;;;;;;1720844;28;20197;-72
2022/06/27 08:12:33;;;;;;;3.45;1.20;;;23.90;97.20;;;;;;1721075;28;20508;-72
2022/06/27 08:13:26;;;;;;;1.55;1.10;;;23.90;97.20;;;;;;1720855;28;20263;-72
2022/06/27 08:14:18;;;;;;;1.33;1.13;;;23.90;97.20;;;;;;1721003;28;20554;-72
2022/06/27 08:15:10;;;;;;;1.75;1.45;;;23.90;97.20;;;;;;1720926;28;20204;-72
2022/06/27 08:16:02;;;;;;;1.50;1.30;;;23.90;97.20;;;;;;1721055;28;20692;-72
2022/06/27 08:16:54;;;;;;;1.75;1.40;;;23.90;97.20;;;;;;1720656;28;20201;-72
2022/06/27 08:17:48;;;;;;;3.00;1.23;;;23.90;97.20;;;;;;1720968;28;20260;-72
2022/06/27 08:18:40;;;;;;;1.52;1.30;;;24.00;97.20;;;;;;1721015;28;20570;-73
2022/06/27 08:19:31;;;;;;;2.08;1.33;;;23.90;97.20;;;;;;1720597;28;20205;-72
2022/06/27 08:20:22;;;;;;;3.28;1.08;;;23.90;97.20;;;;;;1720963;28;20213;-72
2022/06/27 08:21:16;;;;;;;3.23;1.23;;;23.90;97.20;;;;;;1720881;28;20553;-72
2022/06/27 08:22:08;;;;;;;2.10;1.25;;;24.00;97.20;;;;;;1720923;28;20683;-72
2022/06/27 08:23:01;;;;;;;3.42;1.45;;;24.00;97.20;;;;;;1720813;28;20665;-72
2022/06/27 08:23:53;;;;;;;1.80;1.23;;;24.00;97.20;;;;;;1721096;28;20205;-72
2022/06/27 08:24:44;;;;;;;1.80;1.10;;;24.00;97.20;;;;;;1720998;28;20208;-72
2022/06/27 08:25:37;;;;;;;1.23;0.97;;;24.00;97.20;;;;;;1720780;28;20236;-73
2022/06/27 08:26:31;;;;;;;1.45;1.20;;;24.10;97.20;;;;;;1720847;28;20828;-73
2022/06/27 08:27:21;;;;;;;1.85;1.23;;;24.10;97.20;;;;;;1720637;28;20623;-72
2022/06/27 08:28:16;;;;;;;2.23;1.37;;;24.10;97.20;;;;;;1720728;28;20288;-72
2022/06/27 08:29:07;;;;;;;1.65;1.02;;;24.10;97.20;;;;;;1720829;28;20291;-72
2022/06/27 08:29:59;;;;;;;1.60;1.10;;;24.10;97.20;;;;;;1720829;28;20200;-72
2022/06/27 08:30:50;;;;;;;2.53;1.00;;;24.20;97.20;;;;;;1720791;28;20233;-72
2022/06/27 08:31:44;;;;;;;2.30;1.20;;;24.20;97.20;;;;;;1720903;28;20664;-72
2022/06/27 08:32:35;;;;;;;4.80;1.30;;;24.20;97.20;;;;;;1720750;28;20205;-72
2022/06/27 08:33:27;;;;;;;1.97;1.10;;;24.20;97.20;;;;;;1720545;28;20243;-72
2022/06/27 08:34:20;;;;;;;2.55;1.33;;;24.20;97.20;;;;;;1720884;28;20485;-72
2022/06/27 08:35:12;;;;;;;1.90;1.30;;;24.20;97.20;;;;;;1720782;28;20284;-72
2022/06/27 08:36:04;;;;;;;1.80;1.20;;;24.10;97.20;;;;;;1720752;28;20193;-72
2022/06/27 08:36:56;;;;;;;3.03;1.10;;;24.10;97.20;;;;;;1720509;28;20678;-72
2022/06/27 08:37:47;;;;;;;3.33;1.40;;;24.10;97.20;;;;;;1720186;28;20661;-72
2022/06/27 08:38:42;;;;;;;1.40;1.17;;;24.10;97.20;;;;;;1720680;28;20871;-73
2022/06/27 08:39:34;;;;;;;2.38;1.10;;;24.10;97.20;;;;;;1720952;28;20459;-72
2022/06/27 08:40:27;;;;;;;1.30;1.00;;;24.10;97.20;;;;;;1720884;28;20637;-72
2022/06/27 08:41:21;;;;;;;1.92;1.10;;;24.20;97.20;;;;;;1720798;28;20695;-72
2022/06/27 08:42:12;;;;;;;2.17;1.40;;;24.20;97.20;;;;;;1720791;28;20212;-72
2022/06/27 08:43:04;;;;;;;2.47;1.50;;;24.20;97.20;;;;;;1720793;28;20204;-72
2022/06/27 08:44:00;;;;;;;2.05;1.60;;;24.20;97.20;;;;;;1720732;28;20448;-72
2022/06/27 08:44:51;;;;;;;2.10;1.45;;;24.20;97.20;;;;;;1720796;28;20212;-73
2022/06/27 08:45:46;;;;;;;2.00;1.63;;;24.20;97.20;;;;;;1720712;28;20208;-72
2022/06/27 08:46:36;;;;;;;2.33;1.63;;;24.20;97.20;;;;;;1720458;28;20210;-72
2022/06/27 08:47:30;;;;;;;2.50;1.27;;;24.10;97.20;;;;;;1720840;28;20280;-72
2022/06/27 08:48:21;;;;;;;1.67;1.30;;;24.10;97.20;;;;;;1720446;28;20258;-72
2022/06/27 08:49:15;;;;;;;2.33;1.02;;;24.10;97.20;;;;;;1720735;28;20661;-72
2022/06/27 08:50:07;;;;;;;1.83;1.50;;;24.10;97.20;;;;;;1720851;28;20288;-72
2022/06/27 08:51:01;;;;;;;1.42;1.30;;;24.10;97.20;;;;;;1720629;28;20197;-72
2022/06/27 08:51:54;;;;;;;2.75;1.63;;;24.10;97.20;;;;;;1720844;28;20263;-72
2022/06/27 08:52:48;;;;;;;1.50;1.40;;;24.10;97.20;;;;;;1720812;28;20237;-72
2022/06/27 08:53:42;;;;;;;2.28;1.35;;;24.10;97.20;;;;;;1720675;28;20801;-72
2022/06/27 08:54:32;;;;;;;2.40;1.27;;;24.10;97.20;;;;;;1720693;28;20208;-72
2022/06/27 08:55:25;;;;;;;1.97;1.33;;;24.10;97.20;;;;;;1720854;28;20236;-72
2022/06/27 08:56:16;;;;;;;2.20;1.20;;;24.10;97.20;;;;;;1720612;28;20536;-72
2022/06/27 08:57:08;;;;;;;1.42;1.20;;;24.10;97.20;;;;;;1720425;28;20193;-72
2022/06/27 08:58:04;;;;;;;2.85;1.60;;;24.10;97.20;;;;;;1720644;28;20208;-72
2022/06/27 08:58:59;;;;;;;1.63;1.20;;;24.10;97.20;;;;;;1720706;28;20296;-72
2022/06/27 08:59:51;;;;;;;3.88;1.30;;;24.10;97.20;;;;;;1720811;28;20704;-73
2022/06/27 09:00:46;;;;;;;1.70;1.10;;;24.10;97.20;;;;;;1720706;28;20620;-72
2022/06/27 09:01:37;;;;;;;1.80;1.30;;;24.10;97.20;;;;;;1720642;28;20233;-72
2022/06/27 09:02:29;;;;;;;1.77;1.00;;;24.10;97.20;;;;;;1720422;28;20211;-72
2022/06/27 09:03:22;;;;;;;1.48;1.33;;;24.10;97.20;;;;;;1720600;28;20723;-72
2022/06/27 09:04:13;;;;;;;2.35;1.20;;;24.10;97.20;;;;;;1720734;28;20652;-72
2022/06/27 09:05:05;;;;;;;1.67;1.30;;;24.10;97.20;;;;;;1720662;28;20197;-72
2022/06/27 09:05:59;;;;;;;1.35;1.25;;;24.10;97.20;;;;;;1720513;28;20209;-72
2022/06/27 09:06:56;;;;;;;1.35;1.17;;;24.10;97.20;;;;;;1720390;28;20205;-72
2022/06/27 09:07:50;;;;;;;1.50;1.38;;;24.20;97.20;;;;;;1720669;28;20434;-72
2022/06/27 09:09:03;;;;;;;1.60;1.23;;;24.20;97.20;;;;;;1720694;28;20243;-72
2022/06/27 09:09:54;;;;;;;3.28;1.58;;;24.20;97.20;;;;;;1720754;28;20205;-72
2022/06/27 09:10:46;;;;;;;1.70;1.30;;;24.20;97.20;;;;;;1720737;28;20208;-72
2022/06/27 09:11:39;;;;;;;1.30;1.20;;;24.20;97.20;;;;;;1720709;28;20274;-72
2022/06/27 09:12:31;;;;;;;1.38;1.10;;;24.20;97.20;;;;;;1720677;28;20201;-72
2022/06/27 09:13:23;;;;;;;3.05;1.10;;;24.30;97.20;;;;;;1720464;28;20236;-72
2022/06/27 09:14:31;;;;;;;5.72;1.60;;;24.30;97.20;;;;;;1720652;28;20201;-72
2022/06/27 09:15:24;;;;;;;3.38;1.40;;;24.30;97.20;;;;;;1720670;28;20216;-72
2022/06/27 09:16:17;;;;;;;3.70;1.20;;;24.30;97.20;;;;;;1720598;28;20201;-72
2022/06/27 09:17:12;;;;;;;5.45;1.33;;;24.30;97.20;;;;;;1720059;28;20254;-72
2022/06/27 09:18:06;;;;;;;1.95;1.23;;;24.30;97.20;;;;;;1720569;28;20260;-72
2022/06/27 09:18:58;;;;;;;2.05;1.02;;;24.30;97.20;;;;;;1720603;28;20668;-72
2022/06/27 09:19:52;;;;;;;1.95;1.00;;;24.30;97.20;;;;;;1720602;28;20692;-72
2022/06/27 09:20:52;;;;;;;1.40;0.98;;;24.30;97.20;;;;;;1720577;28;20212;-72
2022/06/27 09:21:43;;;;;;;2.22;1.13;;;24.30;97.20;;;;;;1720786;28;20209;-72
2022/06/27 09:22:35;;;;;;;1.98;1.33;;;24.30;97.20;;;;;;1720555;28;20205;-72
2022/06/27 09:23:31;;;;;;;1.45;1.17;;;24.30;97.20;;;;;;1720529;28;20264;-72
2022/06/27 09:24:25;;;;;;;3.17;1.20;;;24.30;97.20;;;;;;1720751;28;20260;-72
2022/06/27 09:25:20;;;;;;;1.33;1.23;;;24.30;97.20;;;;;;1720624;28;20622;-72
2022/06/27 09:26:14;;;;;;;2.13;1.10;;;24.30;97.20;;;;;;1720450;28;20197;-72
2022/06/27 09:27:05;;;;;;;1.98;1.20;;;24.30;97.20;;;;;;1720380;28;20356;-72
2022/06/27 09:27:58;;;;;;;2.50;1.20;;;24.40;97.20;;;;;;1720569;28;20248;-72
2022/06/27 09:28:53;;;;;;;2.75;1.25;;;24.40;97.20;;;;;;1720631;28;20220;-72
2022/06/27 09:29:45;;;;;;;1.55;1.00;;;24.40;97.20;;;;;;1720567;28;20263;-72
2022/06/27 09:30:36;;;;;;;1.42;1.13;;;24.30;97.20;;;;;;1720651;28;20208;-72
2022/06/27 09:31:31;;;;;;;4.32;1.00;;;24.30;97.20;;;;;;1720295;28;20621;-72
2022/06/27 09:32:25;;;;;;;1.25;1.05;;;24.30;97.20;;;;;;1720655;28;20311;-72